sensor_id;sensor_type;location;lat;lon;timestamp;pressure;altitude;pressure_sealevel;temperature;humidity
71938;BME280;59810;48.800;9.086;2023-07-29T00:00:46;97230.47;;;17.58;100.00
71938;BME280;59810;48.800;9.086;2023-07-29T00:03:12;97233.72;;;17.60;100.00
71938;BME280;59810;48.800;9.086;2023-07-29T00:05:37;97220.38;;;17.59;100.00
71938;BME280;59810;48.800;9.086;2023-07-29T00:08:06;97221.78;;;17.56;100.00
71938;BME280;59810;48.800;9.086;2023-07-29T00:10:37;97213.06;;;17.54;100.00
71938;BME280;59810;48.800;9.086;2023-07-29T00:13:03;97210.94;;;17.51;100.00
71938;BME280;59810;48.800;9.086;2023-07-29T00:15:31;97203.88;;;17.50;100.00
71938;BME280;59810;48.800;9.086;2023-07-29T00:17:57;97205.00;;;17.49;100.00
71938;BME280;59810;48.800;9.086;2023-07-29T00:20:22;97207.72;;;17.49;100.00
71938;BME280;59810;48.800;9.086;2023-07-29T00:22:48;97219.25;;;17.46;100.00
71938;BME280;59810;48.800;9.086;2023-07-29T00:25:15;97210.75;;;17.48;100.00
71938;BME280;59810;48.800;9.086;2023-07-29T00:27:42;97205.00;;;17.49;100.00
71938;BME280;59810;48.800;9.086;2023-07-29T00:30:07;97219.94;;;17.52;100.00
71938;BME280;59810;48.800;9.086;2023-07-29T00:32:33;97214.50;;;17.52;100.00
71938;BME280;59810;48.800;9.086;2023-07-29T00:34:58;97201.56;;;17.57;100.00
71938;BME280;59810;48.800;9.086;2023-07-29T00:37:27;97206.22;;;17.57;100.00
71938;BME280;59810;48.800;9.086;2023-07-29T00:39:52;97208.41;;;17.55;100.00
71938;BME280;59810;48.800;9.086;2023-07-29T00:42:18;97206.00;;;17.53;100.00
71938;BME280;59810;48.800;9.086;2023-07-29T00:44:43;97206.31;;;17.52;100.00
71938;BME280;59810;48.800;9.086;2023-07-29T00:47:09;97199.63;;;17.44;100.00
71938;BME280;59810;48.800;9.086;2023-07-29T00:49:35;97205.59;;;17.46;100.00
71938;BME280;59810;48.800;9.086;2023-07-29T00:52:00;97207.22;;;17.47;100.00
71938;BME280;59810;48.800;9.086;2023-07-29T00:54:26;97207.22;;;17.47;100.00
71938;BME280;59810;48.800;9.086;2023-07-29T00:56:51;97210.94;;;17.51;100.00
71938;BME280;59810;48.800;9.086;2023-07-29T00:59:17;97208.41;;;17.55;100.00
71938;BME280;59810;48.800;9.086;2023-07-29T01:01:42;97203.75;;;17.55;100.00
71938;BME280;59810;48.800;9.086;2023-07-29T01:04:08;97190.91;;;17.56;100.00
71938;BME280;59810;48.800;9.086;2023-07-29T01:06:53;97191.47;;;17.58;100.00
71938;BME280;59810;48.800;9.086;2023-07-29T01:09:35;97181.84;;;17.60;100.00
71938;BME280;59810;48.800;9.086;2023-07-29T01:15:07;97185.88;;;17.63;100.00
71938;BME280;59810;48.800;9.086;2023-07-29T01:17:50;97184.75;;;17.64;100.00
71938;BME280;59810;48.800;9.086;2023-07-29T01:20:20;97189.63;;;17.67;99.72
71938;BME280;59810;48.800;9.086;2023-07-29T01:22:48;97187.72;;;17.67;99.65
71938;BME280;59810;48.800;9.086;2023-07-29T01:25:13;97191.44;;;17.71;99.42
71938;BME280;59810;48.800;9.086;2023-07-29T01:27:41;97182.75;;;17.69;99.43
71938;BME280;59810;48.800;9.086;2023-07-29T01:30:07;97178.09;;;17.70;98.85
71938;BME280;59810;48.800;9.086;2023-07-29T01:37:37;97183.56;;;17.70;99.39
71938;BME280;59810;48.800;9.086;2023-07-29T01:40:04;97178.72;;;17.67;99.37
71938;BME280;59810;48.800;9.086;2023-07-29T01:42:31;97185.25;;;17.66;99.12
71938;BME280;59810;48.800;9.086;2023-07-29T01:44:57;97184.38;;;17.70;98.07
71938;BME280;59810;48.800;9.086;2023-07-29T01:47:22;97191.63;;;17.75;97.39
71938;BME280;59810;48.800;9.086;2023-07-29T01:49:48;97178.47;;;17.77;96.32
71938;BME280;59810;48.800;9.086;2023-07-29T01:52:15;97180.59;;;17.80;96.66
71938;BME280;59810;48.800;9.086;2023-07-29T01:54:41;97175.31;;;17.84;95.20
71938;BME280;59810;48.800;9.086;2023-07-29T01:57:06;97167.13;;;17.84;96.38
71938;BME280;59810;48.800;9.086;2023-07-29T01:59:31;97159.44;;;17.86;95.26
71938;BME280;59810;48.800;9.086;2023-07-29T02:01:57;97166.44;;;17.78;96.94
71938;BME280;59810;48.800;9.086;2023-07-29T02:04:22;97161.28;;;17.77;96.23
71938;BME280;59810;48.800;9.086;2023-07-29T02:06:48;97159.38;;;17.77;95.72
71938;BME280;59810;48.800;9.086;2023-07-29T02:09:13;97160.97;;;17.78;96.15
71938;BME280;59810;48.800;9.086;2023-07-29T02:11:38;97156.13;;;17.75;96.71
71938;BME280;59810;48.800;9.086;2023-07-29T02:14:04;97150.81;;;17.70;96.55
71938;BME280;59810;48.800;9.086;2023-07-29T02:16:29;97150.00;;;17.69;96.70
71938;BME280;59810;48.800;9.086;2023-07-29T02:18:54;97145.97;;;17.67;96.43
71938;BME280;59810;48.800;9.086;2023-07-29T02:21:22;97144.31;;;17.66;96.79
71938;BME280;59810;48.800;9.086;2023-07-29T02:23:47;97144.13;;;17.62;96.92
71938;BME280;59810;48.800;9.086;2023-07-29T02:26:13;97147.97;;;17.61;97.38
71938;BME280;59810;48.800;9.086;2023-07-29T02:28:38;97149.59;;;17.62;96.68
71938;BME280;59810;48.800;9.086;2023-07-29T02:31:19;97139.78;;;17.61;96.88
71938;BME280;59810;48.800;9.086;2023-07-29T02:33:45;97150.88;;;17.65;96.96
71938;BME280;59810;48.800;9.086;2023-07-29T02:36:12;97141.88;;;17.64;96.63
71938;BME280;59810;48.800;9.086;2023-07-29T02:38:38;97141.88;;;17.64;96.70
71938;BME280;59810;48.800;9.086;2023-07-29T02:41:03;97134.50;;;17.65;96.57
71938;BME280;59810;48.800;9.086;2023-07-29T02:43:28;97135.31;;;17.65;96.83
71938;BME280;59810;48.800;9.086;2023-07-29T02:45:56;97139.47;;;17.63;97.27
71938;BME280;59810;48.800;9.086;2023-07-29T02:48:25;97139.16;;;17.64;96.94
71938;BME280;59810;48.800;9.086;2023-07-29T02:50:50;97147.34;;;17.64;96.11
71938;BME280;59810;48.800;9.086;2023-07-29T02:53:17;97151.19;;;17.63;96.60
71938;BME280;59810;48.800;9.086;2023-07-29T02:55:42;97140.28;;;17.63;96.77
71938;BME280;59810;48.800;9.086;2023-07-29T02:58:08;97147.34;;;17.64;96.38
71938;BME280;59810;48.800;9.086;2023-07-29T03:00:33;97145.75;;;17.63;96.67
71938;BME280;59810;48.800;9.086;2023-07-29T03:02:59;97135.31;;;17.65;96.21
71938;BME280;59810;48.800;9.086;2023-07-29T03:05:27;97114.59;;;17.64;96.35
71938;BME280;59810;48.800;9.086;2023-07-29T03:07:55;97130.16;;;17.64;96.37
71938;BME280;59810;48.800;9.086;2023-07-29T03:10:24;97121.97;;;17.64;95.86
71938;BME280;59810;48.800;9.086;2023-07-29T03:12:50;97121.66;;;17.65;95.55
71938;BME280;59810;48.800;9.086;2023-07-29T03:15:16;97126.53;;;17.68;95.62
71938;BME280;59810;48.800;9.086;2023-07-29T03:17:41;97113.38;;;17.70;95.70
71938;BME280;59810;48.800;9.086;2023-07-29T03:20:07;97113.38;;;17.70;95.86
71938;BME280;59810;48.800;9.086;2023-07-29T03:22:32;97109.03;;;17.69;95.71
71938;BME280;59810;48.800;9.086;2023-07-29T03:24:58;97107.13;;;17.70;95.87
71938;BME280;59810;48.800;9.086;2023-07-29T03:27:23;97103.06;;;17.67;96.04
71938;BME280;59810;48.800;9.086;2023-07-29T03:29:48;97112.34;;;17.66;96.91
71938;BME280;59810;48.800;9.086;2023-07-29T03:32:17;97107.50;;;17.63;96.71
71938;BME280;59810;48.800;9.086;2023-07-29T03:34:42;97111.06;;;17.64;96.27
71938;BME280;59810;48.800;9.086;2023-07-29T03:37:07;97110.25;;;17.63;96.88
71938;BME280;59810;48.800;9.086;2023-07-29T03:39:35;97111.53;;;17.66;96.43
71938;BME280;59810;48.800;9.086;2023-07-29T03:42:01;97106.91;;;17.66;96.79
71938;BME280;59810;48.800;9.086;2023-07-29T03:44:29;97102.28;;;17.67;96.43
71938;BME280;59810;48.800;9.086;2023-07-29T03:46:56;97107.13;;;17.70;96.30
71938;BME280;59810;48.800;9.086;2023-07-29T03:49:21;97108.91;;;17.75;95.91
71938;BME280;59810;48.800;9.086;2023-07-29T03:51:47;97107.38;;;17.82;94.85
71938;BME280;59810;48.800;9.086;2023-07-29T03:54:12;97112.50;;;17.84;95.07
71938;BME280;59810;48.800;9.086;2023-07-29T03:56:37;97131.13;;;17.82;96.47
71938;BME280;59810;48.800;9.086;2023-07-29T03:59:04;97122.25;;;17.76;99.07
71938;BME280;59810;48.800;9.086;2023-07-29T04:01:32;97109.63;;;17.66;99.95
71938;BME280;59810;48.800;9.086;2023-07-29T04:03:58;97103.47;;;17.61;100.00
71938;BME280;59810;48.800;9.086;2023-07-29T04:06:24;97106.59;;;17.54;100.00
71938;BME280;59810;48.800;9.086;2023-07-29T04:08:49;97108.66;;;17.49;100.00
71938;BME280;59810;48.800;9.086;2023-07-29T04:11:17;97109.56;;;17.44;100.00
71938;BME280;59810;48.800;9.086;2023-07-29T04:13:43;97110.81;;;17.38;100.00
71938;BME280;59810;48.800;9.086;2023-07-29T04:16:10;97112.03;;;17.32;100.00
71938;BME280;59810;48.800;9.086;2023-07-29T04:18:36;97112.16;;;17.27;100.00
71938;BME280;59810;48.800;9.086;2023-07-29T04:21:04;97116.50;;;17.28;100.00
71938;BME280;59810;48.800;9.086;2023-07-29T04:23:31;97116.50;;;17.28;100.00
71938;BME280;59810;48.800;9.086;2023-07-29T04:25:57;97118.09;;;17.29;100.00
71938;BME280;59810;48.800;9.086;2023-07-29T04:28:24;97127.91;;;17.30;100.00
71938;BME280;59810;48.800;9.086;2023-07-29T04:30:50;97125.97;;;17.30;100.00
71938;BME280;59810;48.800;9.086;2023-07-29T04:33:15;97122.94;;;17.32;100.00
71938;BME280;59810;48.800;9.086;2023-07-29T04:35:40;97130.94;;;17.28;100.00
71938;BME280;59810;48.800;9.086;2023-07-29T04:38:05;97139.75;;;17.25;100.00
71938;BME280;59810;48.800;9.086;2023-07-29T04:40:35;97144.47;;;17.20;100.00
71938;BME280;59810;48.800;9.086;2023-07-29T04:43:01;97148.41;;;17.14;100.00
71938;BME280;59810;48.800;9.086;2023-07-29T04:45:30;97154.38;;;17.02;100.00
71938;BME280;59810;48.800;9.086;2023-07-29T04:47:56;97146.63;;;16.95;100.00
71938;BME280;59810;48.800;9.086;2023-07-29T04:50:21;97157.91;;;16.89;100.00
71938;BME280;59810;48.800;9.086;2023-07-29T04:52:49;97159.91;;;16.83;100.00
71938;BME280;59810;48.800;9.086;2023-07-29T04:55:15;97145.28;;;16.79;100.00
71938;BME280;59810;48.800;9.086;2023-07-29T04:57:40;97140.22;;;16.72;100.00
71938;BME280;59810;48.800;9.086;2023-07-29T05:00:06;97131.84;;;16.69;100.00
71938;BME280;59810;48.800;9.086;2023-07-29T05:02:32;97127.81;;;16.66;100.00
71938;BME280;59810;48.800;9.086;2023-07-29T05:04:57;97127.56;;;16.63;100.00
71938;BME280;59810;48.800;9.086;2023-07-29T05:07:22;97125.16;;;16.61;100.00
71938;BME280;59810;48.800;9.086;2023-07-29T05:09:48;97125.97;;;16.62;100.00
71938;BME280;59810;48.800;9.086;2023-07-29T05:12:16;97108.50;;;16.63;100.00
71938;BME280;59810;48.800;9.086;2023-07-29T05:14:41;97101.34;;;16.67;100.00
71938;BME280;59810;48.800;9.086;2023-07-29T05:17:07;97101.88;;;16.69;100.00
71938;BME280;59810;48.800;9.086;2023-07-29T05:19:32;97104.47;;;16.74;100.00
71938;BME280;59810;48.800;9.086;2023-07-29T05:21:57;97094.88;;;16.76;100.00
71938;BME280;59810;48.800;9.086;2023-07-29T05:24:23;97101.03;;;16.82;100.00
71938;BME280;59810;48.800;9.086;2023-07-29T05:26:49;97114.06;;;16.85;100.00
71938;BME280;59810;48.800;9.086;2023-07-29T05:29:16;97103.59;;;16.92;100.00
71938;BME280;59810;48.800;9.086;2023-07-29T05:31:42;97116.31;;;16.97;100.00
71938;BME280;59810;48.800;9.086;2023-07-29T05:34:07;97113.47;;;17.02;100.00
71938;BME280;59810;48.800;9.086;2023-07-29T05:36:32;97121.75;;;17.10;100.00
71938;BME280;59810;48.800;9.086;2023-07-29T05:38:58;97126.47;;;17.19;100.00
71938;BME280;59810;48.800;9.086;2023-07-29T05:41:23;97126.41;;;17.24;100.00
71938;BME280;59810;48.800;9.086;2023-07-29T05:43:49;97120.34;;;17.27;100.00
71938;BME280;59810;48.800;9.086;2023-07-29T05:46:14;97124.56;;;17.33;100.00
71938;BME280;59810;48.800;9.086;2023-07-29T05:48:40;97124.94;;;17.40;100.00
71938;BME280;59810;48.800;9.086;2023-07-29T05:51:05;97122.91;;;17.46;100.00
71938;BME280;59810;48.800;9.086;2023-07-29T05:53:31;97122.19;;;17.54;100.00
71938;BME280;59810;48.800;9.086;2023-07-29T05:55:56;97117.13;;;17.61;100.00
71938;BME280;59810;48.800;9.086;2023-07-29T05:58:21;97113.19;;;17.67;100.00
71938;BME280;59810;48.800;9.086;2023-07-29T06:00:47;97108.91;;;17.75;100.00
71938;BME280;59810;48.800;9.086;2023-07-29T06:03:14;97104.63;;;17.82;100.00
71938;BME280;59810;48.800;9.086;2023-07-29T06:05:40;97099.56;;;17.89;100.00
71938;BME280;59810;48.800;9.086;2023-07-29T06:08:05;97104.59;;;17.96;100.00
71938;BME280;59810;48.800;9.086;2023-07-29T06:10:30;97101.09;;;18.04;100.00
71938;BME280;59810;48.800;9.086;2023-07-29T06:12:56;97095.38;;;18.14;100.00
71938;BME280;59810;48.800;9.086;2023-07-29T06:15:21;97104.25;;;18.20;100.00
71938;BME280;59810;48.800;9.086;2023-07-29T06:17:49;97108.31;;;18.22;100.00
71938;BME280;59810;48.800;9.086;2023-07-29T06:20:14;97107.06;;;18.28;100.00
71938;BME280;59810;48.800;9.086;2023-07-29T06:22:41;97117.53;;;18.35;100.00
71938;BME280;59810;48.800;9.086;2023-07-29T06:25:07;97114.69;;;18.40;100.00
71938;BME280;59810;48.800;9.086;2023-07-29T06:27:35;97118.41;;;18.44;100.00
71938;BME280;59810;48.800;9.086;2023-07-29T06:30:01;97116.97;;;18.47;100.00
71938;BME280;59810;48.800;9.086;2023-07-29T06:32:26;97128.88;;;18.51;100.00
71938;BME280;59810;48.800;9.086;2023-07-29T06:34:51;97137.09;;;18.51;100.00
71938;BME280;59810;48.800;9.086;2023-07-29T06:37:19;97123.72;;;18.49;100.00
71938;BME280;59810;48.800;9.086;2023-07-29T06:39:44;97126.78;;;18.48;100.00
71938;BME280;59810;48.800;9.086;2023-07-29T06:42:12;97138.53;;;18.48;100.00
71938;BME280;59810;48.800;9.086;2023-07-29T06:44:37;97139.31;;;18.49;100.00
71938;BME280;59810;48.800;9.086;2023-07-29T06:47:03;97139.00;;;18.50;100.00
71938;BME280;59810;48.800;9.086;2023-07-29T06:49:28;97139.31;;;18.49;100.00
71938;BME280;59810;48.800;9.086;2023-07-29T06:51:53;97132.72;;;18.50;100.00
71938;BME280;59810;48.800;9.086;2023-07-29T06:54:19;97144.78;;;18.49;100.00
71938;BME280;59810;48.800;9.086;2023-07-29T06:56:44;97134.66;;;18.49;100.00
71938;BME280;59810;48.800;9.086;2023-07-29T06:59:09;97145.59;;;18.49;100.00
71938;BME280;59810;48.800;9.086;2023-07-29T07:01:37;97150.25;;;18.49;100.00
71938;BME280;59810;48.800;9.086;2023-07-29T07:04:02;97156.97;;;18.43;100.00
71938;BME280;59810;48.800;9.086;2023-07-29T07:06:27;97178.03;;;18.42;100.00
71938;BME280;59810;48.800;9.086;2023-07-29T07:08:53;97170.78;;;18.38;100.00
71938;BME280;59810;48.800;9.086;2023-07-29T07:11:18;97162.09;;;18.35;100.00
71938;BME280;59810;48.800;9.086;2023-07-29T07:13:44;97160.47;;;18.34;100.00
71938;BME280;59810;48.800;9.086;2023-07-29T07:16:09;97161.28;;;18.35;100.00
71938;BME280;59810;48.800;9.086;2023-07-29T07:18:34;97157.88;;;18.29;100.00
71938;BME280;59810;48.800;9.086;2023-07-29T07:21:00;97162.53;;;18.29;100.00
71938;BME280;59810;48.800;9.086;2023-07-29T07:23:25;97155.94;;;18.30;100.00
71938;BME280;59810;48.800;9.086;2023-07-29T07:25:50;97162.72;;;18.32;100.00
71938;BME280;59810;48.800;9.086;2023-07-29T07:28:16;97174.94;;;18.35;100.00
71938;BME280;59810;48.800;9.086;2023-07-29T07:30:41;97181.09;;;18.41;100.00
71938;BME280;59810;48.800;9.086;2023-07-29T07:33:07;97188.03;;;18.47;100.00
71938;BME280;59810;48.800;9.086;2023-07-29T07:35:32;97178.41;;;18.49;100.00
71938;BME280;59810;48.800;9.086;2023-07-29T07:37:57;97173.13;;;18.53;100.00
71938;BME280;59810;48.800;9.086;2023-07-29T07:40:24;97175.56;;;18.54;100.00
71938;BME280;59810;48.800;9.086;2023-07-29T07:42:50;97163.19;;;18.57;100.00
71938;BME280;59810;48.800;9.086;2023-07-29T07:45:15;97179.28;;;18.58;100.00
71938;BME280;59810;48.800;9.086;2023-07-29T07:47:40;97165.50;;;18.63;100.00
71938;BME280;59810;48.800;9.086;2023-07-29T07:50:06;97162.47;;;18.65;100.00
71938;BME280;59810;48.800;9.086;2023-07-29T07:52:31;97169.66;;;18.61;100.00
71938;BME280;59810;48.800;9.086;2023-07-29T07:54:59;97164.19;;;18.61;99.31
71938;BME280;59810;48.800;9.086;2023-07-29T07:57:24;97159.25;;;18.63;99.48
71938;BME280;59810;48.800;9.086;2023-07-29T07:59:49;97153.31;;;18.70;99.13
71938;BME280;59810;48.800;9.086;2023-07-29T08:02:17;97158.47;;;18.71;97.51
71938;BME280;59810;48.800;9.086;2023-07-29T08:04:45;97169.75;;;18.78;97.46
71938;BME280;59810;48.800;9.086;2023-07-29T08:07:10;97172.56;;;18.87;97.38
71938;BME280;59810;48.800;9.086;2023-07-29T08:09:36;97179.81;;;18.91;96.75
71938;BME280;59810;48.800;9.086;2023-07-29T08:12:04;97183.88;;;19.03;96.49
71938;BME280;59810;48.800;9.086;2023-07-29T08:14:29;97193.09;;;19.15;95.40
71938;BME280;59810;48.800;9.086;2023-07-29T08:16:54;97200.56;;;19.23;94.40
71938;BME280;59810;48.800;9.086;2023-07-29T08:19:20;97215.22;;;19.27;94.88
71938;BME280;59810;48.800;9.086;2023-07-29T08:21:45;97211.53;;;19.32;94.33
71938;BME280;59810;48.800;9.086;2023-07-29T08:24:10;97203.00;;;19.34;95.15
71938;BME280;59810;48.800;9.086;2023-07-29T08:26:36;97195.44;;;19.39;93.92
71938;BME280;59810;48.800;9.086;2023-07-29T08:29:01;97202.41;;;19.45;93.74
71938;BME280;59810;48.800;9.086;2023-07-29T08:31:26;97196.28;;;19.48;93.72
71938;BME280;59810;48.800;9.086;2023-07-29T08:33:51;97191.50;;;19.54;93.23
71938;BME280;59810;48.800;9.086;2023-07-29T08:36:17;97199.75;;;19.63;93.09
71938;BME280;59810;48.800;9.086;2023-07-29T08:38:42;97199.59;;;19.68;91.52
71938;BME280;59810;48.800;9.086;2023-07-29T08:41:19;97197.19;;;19.75;91.31
71938;BME280;59810;48.800;9.086;2023-07-29T08:43:59;97202.06;;;19.86;92.06
71938;BME280;59810;48.800;9.086;2023-07-29T08:46:28;97196.56;;;20.04;91.25
71938;BME280;59810;48.800;9.086;2023-07-29T08:48:54;97197.56;;;20.16;88.38
71938;BME280;59810;48.800;9.086;2023-07-29T08:51:21;97196.75;;;20.25;86.77
71938;BME280;59810;48.800;9.086;2023-07-29T08:53:48;97201.56;;;20.36;88.04
71938;BME280;59810;48.800;9.086;2023-07-29T08:56:14;97208.06;;;20.49;87.63
71938;BME280;59810;48.800;9.086;2023-07-29T08:58:43;97205.47;;;20.53;86.05
71938;BME280;59810;48.800;9.086;2023-07-29T09:01:08;97203.53;;;20.62;85.24
71938;BME280;59810;48.800;9.086;2023-07-29T09:03:34;97192.84;;;20.69;85.66
71938;BME280;59810;48.800;9.086;2023-07-29T09:05:59;97197.97;;;20.79;85.96
71938;BME280;59810;48.800;9.086;2023-07-29T09:08:27;97193.97;;;20.85;84.31
71938;BME280;59810;48.800;9.086;2023-07-29T09:10:54;97186.53;;;20.86;84.29
71938;BME280;59810;48.800;9.086;2023-07-29T09:13:19;97189.75;;;20.88;84.08
71938;BME280;59810;48.800;9.086;2023-07-29T09:15:45;97187.97;;;20.92;84.80
71938;BME280;59810;48.800;9.086;2023-07-29T09:18:12;97186.31;;;20.99;84.21
71938;BME280;59810;48.800;9.086;2023-07-29T09:20:39;97174.00;;;21.05;84.07
71938;BME280;59810;48.800;9.086;2023-07-29T09:23:07;97185.63;;;21.11;83.77
71938;BME280;59810;48.800;9.086;2023-07-29T09:25:33;97195.28;;;21.26;82.67
71938;BME280;59810;48.800;9.086;2023-07-29T09:27:59;97187.94;;;21.38;80.40
71938;BME280;59810;48.800;9.086;2023-07-29T09:30:26;97184.53;;;21.50;81.11
71938;BME280;59810;48.800;9.086;2023-07-29T09:32:55;97186.00;;;21.68;79.94
71938;BME280;59810;48.800;9.086;2023-07-29T09:35:21;97187.06;;;21.85;79.32
71938;BME280;59810;48.800;9.086;2023-07-29T09:37:46;97189.53;;;21.98;77.12
71938;BME280;59810;48.800;9.086;2023-07-29T09:40:15;97194.66;;;22.09;75.95
71938;BME280;59810;48.800;9.086;2023-07-29T09:42:56;97198.91;;;21.97;74.75
71938;BME280;59810;48.800;9.086;2023-07-29T09:45:23;97189.28;;;21.91;75.75
71938;BME280;59810;48.800;9.086;2023-07-29T09:47:49;97191.28;;;22.03;72.72
71938;BME280;59810;48.800;9.086;2023-07-29T09:50:15;97190.75;;;22.10;72.62
71938;BME280;59810;48.800;9.086;2023-07-29T09:52:41;97191.72;;;22.14;72.34
71938;BME280;59810;48.800;9.086;2023-07-29T09:55:07;97180.44;;;22.07;70.84
71938;BME280;59810;48.800;9.086;2023-07-29T09:57:33;97192.19;;;22.16;72.65
71938;BME280;59810;48.800;9.086;2023-07-29T09:59:59;97189.28;;;22.33;72.29
71938;BME280;59810;48.800;9.086;2023-07-29T10:02:24;97190.31;;;22.61;70.08
71938;BME280;59810;48.800;9.086;2023-07-29T10:04:56;97173.38;;;22.72;70.06
71938;BME280;59810;48.800;9.086;2023-07-29T10:07:21;97181.03;;;22.87;69.92
71938;BME280;59810;48.800;9.086;2023-07-29T10:09:47;97174.38;;;22.88;68.42
71938;BME280;59810;48.800;9.086;2023-07-29T10:12:15;97172.22;;;23.06;67.11
71938;BME280;59810;48.800;9.086;2023-07-29T10:14:41;97176.69;;;22.98;66.92
71938;BME280;59810;48.800;9.086;2023-07-29T10:17:07;97183.31;;;22.85;65.94
71938;BME280;59810;48.800;9.086;2023-07-29T10:19:34;97194.66;;;22.50;73.50
71938;BME280;59810;48.800;9.086;2023-07-29T10:22:00;97198.06;;;22.05;74.47
71938;BME280;59810;48.800;9.086;2023-07-29T10:24:32;97197.13;;;21.72;77.64
71938;BME280;59810;48.800;9.086;2023-07-29T10:27:00;97208.78;;;21.48;77.71
71938;BME280;59810;48.800;9.086;2023-07-29T10:29:31;97203.97;;;21.36;79.17
71938;BME280;59810;48.800;9.086;2023-07-29T10:32:01;97204.34;;;21.26;79.34
71938;BME280;59810;48.800;9.086;2023-07-29T10:34:27;97209.81;;;21.26;77.77
71938;BME280;59810;48.800;9.086;2023-07-29T10:36:53;97198.19;;;21.29;77.23
71938;BME280;59810;48.800;9.086;2023-07-29T10:39:19;97196.66;;;21.40;76.93
71938;BME280;59810;48.800;9.086;2023-07-29T10:42:01;97198.59;;;21.49;76.26
71938;BME280;59810;48.800;9.086;2023-07-29T10:47:43;97206.28;;;21.85;74.92
71938;BME280;59810;48.800;9.086;2023-07-29T10:50:17;97197.97;;;21.93;74.82
71938;BME280;59810;48.800;9.086;2023-07-29T10:52:43;97201.75;;;22.10;73.37
71938;BME280;59810;48.800;9.086;2023-07-29T10:55:29;97199.66;;;22.15;72.28
71938;BME280;59810;48.800;9.086;2023-07-29T10:58:15;97189.91;;;22.18;71.60
71938;BME280;59810;48.800;9.086;2023-07-29T11:00:45;97190.44;;;22.32;72.16
71938;BME280;59810;48.800;9.086;2023-07-29T11:03:13;97200.38;;;22.45;72.21
71938;BME280;59810;48.800;9.086;2023-07-29T11:05:49;97188.72;;;22.60;71.46
71938;BME280;59810;48.800;9.086;2023-07-29T11:11:06;97199.91;;;23.34;68.23
71938;BME280;59810;48.800;9.086;2023-07-29T11:13:40;97197.50;;;23.32;67.76
71938;BME280;59810;48.800;9.086;2023-07-29T11:16:09;97197.63;;;23.36;66.09
71938;BME280;59810;48.800;9.086;2023-07-29T11:18:35;97199.91;;;23.34;65.49
71938;BME280;59810;48.800;9.086;2023-07-29T11:21:02;97198.06;;;23.25;64.65
71938;BME280;59810;48.800;9.086;2023-07-29T11:23:36;97202.31;;;23.11;65.28
71938;BME280;59810;48.800;9.086;2023-07-29T11:26:03;97195.97;;;22.98;66.05
71938;BME280;59810;48.800;9.086;2023-07-29T11:28:29;97184.94;;;22.98;65.20
71938;BME280;59810;48.800;9.086;2023-07-29T11:30:55;97191.59;;;22.97;65.58
71938;BME280;59810;48.800;9.086;2023-07-29T11:33:23;97181.97;;;22.91;64.77
71938;BME280;59810;48.800;9.086;2023-07-29T11:35:49;97178.22;;;23.20;65.09
71938;BME280;59810;48.800;9.086;2023-07-29T11:38:16;97172.38;;;23.34;65.03
71938;BME280;59810;48.800;9.086;2023-07-29T11:40:42;97176.97;;;23.42;64.90
71938;BME280;59810;48.800;9.086;2023-07-29T11:43:07;97174.09;;;23.50;63.59
71938;BME280;59810;48.800;9.086;2023-07-29T11:45:33;97171.81;;;23.52;64.38
71938;BME280;59810;48.800;9.086;2023-07-29T11:47:58;97181.69;;;23.78;62.67
71938;BME280;59810;48.800;9.086;2023-07-29T11:50:24;97176.19;;;23.78;63.42
71938;BME280;59810;48.800;9.086;2023-07-29T11:52:49;97182.22;;;23.96;62.55
71938;BME280;59810;48.800;9.086;2023-07-29T11:55:15;97187.88;;;23.87;62.54
71938;BME280;59810;48.800;9.086;2023-07-29T11:57:41;97176.66;;;24.20;62.22
71938;BME280;59810;48.800;9.086;2023-07-29T12:00:09;97175.09;;;24.47;61.26
71938;BME280;59810;48.800;9.086;2023-07-29T12:02:39;97177.28;;;24.69;60.62
71938;BME280;59810;48.800;9.086;2023-07-29T12:05:06;97174.09;;;24.83;60.28
71938;BME280;59810;48.800;9.086;2023-07-29T12:07:32;97170.53;;;25.10;58.74
71938;BME280;59810;48.800;9.086;2023-07-29T12:10:02;97168.91;;;25.25;58.92
71938;BME280;59810;48.800;9.086;2023-07-29T12:12:28;97163.28;;;25.53;57.69
71938;BME280;59810;48.800;9.086;2023-07-29T12:14:54;97156.50;;;25.66;56.51
71938;BME280;59810;48.800;9.086;2023-07-29T12:17:20;97159.75;;;25.88;53.34
71938;BME280;59810;48.800;9.086;2023-07-29T12:19:45;97166.75;;;26.01;53.78
71938;BME280;59810;48.800;9.086;2023-07-29T12:22:10;97173.41;;;26.16;53.18
71938;BME280;59810;48.800;9.086;2023-07-29T12:24:40;97174.16;;;25.78;50.60
71938;BME280;59810;48.800;9.086;2023-07-29T12:27:09;97165.22;;;25.84;48.65
71938;BME280;59810;48.800;9.086;2023-07-29T12:29:40;97163.63;;;25.83;49.95
71938;BME280;59810;48.800;9.086;2023-07-29T12:32:06;97172.28;;;25.82;49.54
71938;BME280;59810;48.800;9.086;2023-07-29T12:34:32;97165.13;;;25.81;48.98
71938;BME280;59810;48.800;9.086;2023-07-29T12:36:59;97175.25;;;26.08;45.71
71938;BME280;59810;48.800;9.086;2023-07-29T12:39:26;97159.09;;;25.94;46.18
71938;BME280;59810;48.800;9.086;2023-07-29T12:41:53;97163.81;;;26.10;46.40
71938;BME280;59810;48.800;9.086;2023-07-29T12:44:19;97161.81;;;26.45;46.15
71938;BME280;59810;48.800;9.086;2023-07-29T12:46:44;97155.88;;;26.66;45.49
71938;BME280;59810;48.800;9.086;2023-07-29T12:49:10;97160.84;;;26.76;45.86
71938;BME280;59810;48.800;9.086;2023-07-29T12:51:36;97155.97;;;27.12;45.31
71938;BME280;59810;48.800;9.086;2023-07-29T12:54:02;97159.81;;;27.30;44.83
71938;BME280;59810;48.800;9.086;2023-07-29T12:56:28;97151.22;;;26.70;45.77
71938;BME280;59810;48.800;9.086;2023-07-29T12:58:55;97151.22;;;26.51;45.33
71938;BME280;59810;48.800;9.086;2023-07-29T13:01:20;97145.06;;;25.84;47.23
71938;BME280;59810;48.800;9.086;2023-07-29T13:03:45;97147.50;;;26.04;47.64
71938;BME280;59810;48.800;9.086;2023-07-29T13:06:11;97147.06;;;26.22;46.91